createdAt,value
2023-04-15T00:02:26.199Z,69.60
2023-04-15T00:04:54.466Z,69.80
2023-04-15T00:07:22.997Z,69.90
2023-04-15T00:09:55.005Z,70.00
2023-04-15T00:12:24.532Z,70.00
2023-04-15T00:14:52.539Z,70.00
2023-04-15T00:17:20.643Z,70.00
2023-04-15T00:19:48.654Z,69.90
2023-04-15T00:22:17.228Z,69.70
2023-04-15T00:24:45.244Z,69.70
2023-04-15T00:27:13.256Z,69.60
2023-04-15T00:29:42.639Z,69.60
2023-04-15T00:32:10.789Z,69.80
2023-04-15T00:34:38.799Z,70.00
2023-04-15T00:37:06.800Z,70.30
2023-04-15T00:39:35.085Z,70.20
2023-04-15T00:42:03.826Z,70.20
2023-04-15T00:44:32.149Z,70.30
2023-04-15T00:47:02.808Z,70.40
2023-04-15T00:49:32.198Z,70.50
2023-04-15T00:52:00.226Z,70.70
2023-04-15T00:54:28.177Z,70.70
2023-04-15T00:56:56.521Z,70.70
2023-04-15T00:59:25.017Z,70.70
2023-04-15T01:01:53.197Z,70.80
2023-04-15T01:04:23.073Z,70.70
2023-04-15T01:06:51.254Z,70.70
2023-04-15T01:09:19.525Z,70.90
2023-04-15T01:11:47.692Z,71.20
2023-04-15T01:14:16.159Z,71.40
2023-04-15T01:16:45.300Z,71.70
2023-04-15T01:19:15.495Z,71.90
2023-04-15T01:21:45.104Z,71.90
2023-04-15T01:24:14.736Z,71.90
2023-04-15T01:26:44.725Z,71.80
2023-04-15T01:29:13.097Z,71.50
2023-04-15T01:31:41.131Z,71.40
2023-04-15T01:34:09.188Z,71.40
2023-04-15T01:36:37.542Z,71.80
2023-04-15T01:39:06.609Z,72.00
2023-04-15T01:41:34.964Z,71.90
2023-04-15T01:44:04.381Z,72.10
2023-04-15T01:46:32.367Z,72.20
2023-04-15T01:49:01.964Z,72.60
2023-04-15T01:51:30.175Z,72.80
2023-04-15T01:53:58.228Z,72.80
2023-04-15T01:56:26.502Z,72.70
2023-04-15T01:58:54.624Z,72.80
2023-04-15T02:01:24.068Z,72.90
2023-04-15T02:03:52.230Z,72.90
2023-04-15T02:06:21.059Z,72.70
2023-04-15T02:08:49.470Z,72.60
2023-04-15T02:11:17.522Z,72.80
2023-04-15T02:13:45.550Z,72.90
2023-04-15T02:16:18.211Z,73.30
2023-04-15T02:18:48.148Z,73.60
2023-04-15T02:21:16.272Z,73.60
2023-04-15T02:23:44.879Z,73.40
2023-04-15T02:26:14.856Z,73.30
2023-04-15T02:28:42.858Z,73.30
2023-04-15T02:31:10.975Z,73.30
2023-04-15T02:33:38.982Z,73.30
2023-04-15T02:36:10.070Z,73.40
2023-04-15T02:38:38.236Z,73.30
2023-04-15T02:41:06.434Z,73.20
2023-04-15T02:43:35.518Z,73.10
2023-04-15T02:46:03.722Z,72.80
2023-04-15T02:48:31.887Z,72.90
2023-04-15T02:51:14.745Z,73.50
2023-04-15T02:53:42.906Z,73.30
2023-04-15T02:56:11.725Z,73.50
2023-04-15T02:58:41.178Z,73.50
2023-04-15T03:01:09.799Z,73.40
2023-04-15T03:03:38.198Z,73.40
2023-04-15T03:06:06.596Z,73.40
2023-04-15T03:08:36.321Z,73.40
2023-04-15T03:11:04.589Z,73.50
2023-04-15T03:13:33.849Z,73.60
2023-04-15T03:16:08.686Z,73.70
2023-04-15T03:18:36.806Z,73.70
2023-04-15T03:21:05.060Z,73.70
2023-04-15T03:23:37.461Z,73.70
2023-04-15T03:26:06.210Z,73.90
2023-04-15T03:28:35.095Z,73.90
2023-04-15T03:31:03.689Z,74.00
2023-04-15T03:33:32.022Z,74.00
2023-04-15T03:36:00.324Z,74.00
2023-04-15T03:38:28.675Z,74.10
2023-04-15T03:40:57.981Z,74.40
2023-04-15T03:43:26.437Z,74.20
2023-04-15T03:45:54.475Z,74.20
2023-04-15T03:48:22.610Z,74.40
2023-04-15T03:50:50.883Z,74.50
2023-04-15T03:53:18.866Z,74.50
2023-04-15T03:55:47.047Z,74.70
2023-04-15T03:58:16.632Z,74.90
2023-04-15T04:00:44.685Z,74.80
2023-04-15T04:03:12.823Z,74.70
2023-04-15T04:05:41.539Z,74.50
2023-04-15T04:08:09.533Z,74.50
2023-04-15T04:10:37.663Z,74.50
2023-04-15T04:13:05.639Z,74.60
2023-04-15T04:15:35.074Z,74.60
2023-04-15T04:18:03.669Z,74.60
2023-04-15T04:20:32.949Z,74.60
2023-04-15T04:23:00.932Z,74.80
2023-04-15T04:25:28.972Z,74.80
2023-04-15T04:27:57.041Z,74.90
2023-04-15T04:30:25.011Z,74.80
2023-04-15T04:32:54.446Z,74.80
2023-04-15T04:35:22.958Z,74.80
2023-04-15T04:37:50.998Z,74.90
2023-04-15T04:40:19.232Z,74.90
2023-04-15T04:42:47.324Z,75.00
2023-04-15T04:45:15.375Z,75.10
2023-04-15T04:47:43.398Z,75.30
2023-04-15T04:50:12.923Z,75.20
2023-04-15T04:52:41.151Z,75.20
2023-04-15T04:55:09.583Z,75.30
2023-04-15T04:57:37.762Z,75.30
2023-04-15T05:00:08.509Z,75.40
2023-04-15T05:02:37.213Z,75.50
2023-04-15T05:05:06.698Z,75.50
2023-04-15T05:07:36.146Z,75.50
2023-04-15T05:10:04.621Z,75.70
2023-04-15T05:12:32.687Z,75.70
2023-04-15T05:15:00.671Z,75.90
2023-04-15T05:17:28.890Z,76.00
2023-04-15T05:19:56.927Z,76.10
2023-04-15T05:22:25.037Z,76.10
2023-04-15T05:24:54.326Z,76.00
2023-04-15T05:27:22.657Z,75.90
2023-04-15T05:29:50.596Z,76.00
2023-04-15T05:32:18.631Z,75.90
2023-04-15T05:34:47.070Z,75.90
2023-04-15T05:37:15.028Z,76.00
2023-04-15T05:39:43.115Z,76.10
2023-04-15T05:42:12.473Z,76.20
2023-04-15T05:44:40.550Z,76.20
2023-04-15T05:47:09.650Z,76.40
2023-04-15T05:49:37.642Z,76.50
2023-04-15T05:52:06.058Z,76.70
2023-04-15T05:54:34.256Z,76.60
2023-04-15T05:57:02.794Z,76.60
2023-04-15T05:59:32.718Z,76.60
2023-04-15T06:02:00.897Z,76.80
2023-04-15T06:04:29.510Z,76.60
2023-04-15T06:06:57.805Z,76.50
2023-04-15T06:09:25.815Z,76.40
2023-04-15T06:11:54.326Z,76.50
2023-04-15T06:14:22.338Z,76.40
2023-04-15T06:16:51.746Z,76.50
2023-04-15T06:19:20.563Z,76.50
2023-04-15T06:21:48.724Z,76.50
2023-04-15T06:24:16.776Z,76.40
2023-04-15T06:26:44.835Z,76.50
2023-04-15T06:29:12.855Z,76.50
2023-04-15T06:31:41.043Z,76.50
2023-04-15T06:34:11.145Z,76.50
2023-04-15T06:36:39.130Z,76.40
2023-04-15T06:39:07.080Z,76.40
2023-04-15T06:41:35.539Z,76.30
2023-04-15T06:44:03.694Z,76.30
2023-04-15T06:46:31.812Z,76.30
2023-04-15T06:48:59.981Z,76.40
2023-04-15T06:51:29.520Z,76.50
2023-04-15T06:53:57.837Z,76.50
2023-04-15T06:56:26.042Z,76.60
2023-04-15T06:58:54.017Z,76.70
2023-04-15T07:01:23.559Z,76.90
2023-04-15T07:03:55.111Z,77.00
2023-04-15T07:06:23.326Z,77.50
2023-04-15T07:08:52.677Z,77.70
2023-04-15T07:11:21.179Z,77.50
2023-04-15T07:13:49.256Z,77.50
2023-04-15T07:16:17.423Z,77.80
2023-04-15T07:18:45.773Z,78.10
2023-04-15T07:21:13.921Z,78.20
2023-04-15T07:23:43.166Z,78.40
2023-04-15T07:26:12.772Z,78.40
2023-04-15T07:28:41.223Z,78.40
2023-04-15T07:31:09.284Z,78.40
2023-04-15T07:33:37.539Z,78.10
2023-04-15T07:36:05.743Z,78.00
2023-04-15T07:38:33.784Z,78.10
2023-04-15T07:41:01.938Z,78.10
2023-04-15T07:43:31.412Z,77.70
2023-04-15T07:46:00.286Z,77.90
2023-04-15T07:48:28.403Z,78.40
2023-04-15T07:50:56.411Z,78.70
2023-04-15T07:53:24.438Z,78.80
2023-04-15T07:55:52.535Z,78.50
2023-04-15T07:58:20.803Z,78.50
2023-04-15T08:00:50.362Z,78.30
2023-04-15T08:03:18.502Z,78.10
2023-04-15T08:05:47.338Z,78.00
2023-04-15T08:08:15.429Z,77.90
2023-04-15T08:10:43.474Z,77.50
2023-04-15T08:13:11.719Z,77.30
2023-04-15T08:15:39.775Z,76.80
2023-04-15T08:18:09.118Z,76.20
2023-04-15T08:20:37.257Z,75.90
2023-04-15T08:23:05.780Z,76.40
2023-04-15T08:25:33.877Z,76.10
2023-04-15T08:28:05.656Z,76.30
2023-04-15T08:30:34.525Z,75.70
2023-04-15T08:33:02.817Z,75.70
2023-04-15T08:35:32.733Z,75.30
2023-04-15T08:38:00.724Z,74.80
2023-04-15T08:40:36.879Z,75.20
2023-04-15T08:43:06.577Z,75.30
2023-04-15T08:45:35.659Z,75.00
2023-04-15T08:48:06.589Z,74.70
2023-04-15T08:50:36.674Z,74.80
2023-04-15T08:53:04.837Z,74.80
2023-04-15T08:55:36.551Z,75.10
2023-04-15T08:58:05.669Z,75.00
2023-04-15T09:00:34.386Z,75.10
2023-04-15T09:03:03.104Z,74.80
2023-04-15T09:05:35.157Z,74.90
2023-04-15T09:08:04.032Z,75.60
2023-04-15T09:10:32.450Z,75.60
2023-04-15T09:13:02.807Z,75.30
2023-04-15T09:15:33.840Z,75.60
2023-04-15T09:18:01.910Z,75.50
2023-04-15T09:20:30.046Z,75.70
2023-04-15T09:22:59.467Z,75.70
2023-04-15T09:25:29.564Z,75.70
2023-04-15T09:27:59.278Z,75.30
2023-04-15T09:30:28.766Z,75.40
2023-04-15T09:32:58.615Z,74.70
2023-04-15T09:35:27.944Z,74.00
2023-04-15T09:38:05.415Z,74.40
2023-04-15T09:40:34.978Z,74.20
2023-04-15T09:43:03.538Z,74.40
2023-04-15T09:45:31.891Z,75.00
2023-04-15T09:48:00.764Z,75.40
2023-04-15T09:50:30.592Z,75.70
2023-04-15T09:52:59.583Z,75.40
2023-04-15T09:55:28.914Z,75.70
2023-04-15T09:57:56.951Z,76.30
2023-04-15T10:00:25.086Z,76.30
2023-04-15T10:02:53.550Z,75.70
2023-04-15T10:05:23.368Z,76.10
2023-04-15T10:07:51.584Z,76.30
2023-04-15T10:10:20.030Z,76.20
2023-04-15T10:12:50.597Z,76.40
2023-04-15T10:15:19.925Z,76.70
2023-04-15T10:17:52.035Z,76.90
2023-04-15T10:20:21.987Z,77.30
2023-04-15T10:22:50.692Z,77.90
2023-04-15T10:25:19.498Z,78.10
2023-04-15T10:27:52.058Z,78.20
2023-04-15T10:30:20.232Z,78.00
2023-04-15T10:32:48.609Z,77.80
2023-04-15T10:35:17.957Z,77.90
2023-04-15T10:37:46.009Z,77.80
2023-04-15T10:40:31.626Z,78.20
2023-04-15T10:43:02.099Z,78.10
2023-04-15T10:45:33.616Z,77.90
2023-04-15T10:48:04.977Z,77.90
2023-04-15T10:50:33.980Z,78.00
2023-04-15T10:53:04.753Z,78.00
2023-04-15T10:55:34.178Z,77.50
2023-04-15T10:58:04.172Z,77.80
2023-04-15T11:00:35.176Z,78.40
2023-04-15T11:03:07.988Z,78.50
2023-04-15T11:05:51.011Z,78.50
2023-04-15T11:08:19.428Z,78.30
2023-04-15T11:10:56.554Z,78.30
2023-04-15T11:13:31.374Z,78.30
2023-04-15T11:16:01.724Z,78.30
2023-04-15T11:18:32.879Z,78.20
2023-04-15T11:21:03.472Z,78.20
2023-04-15T11:23:44.006Z,78.30
2023-04-15T11:26:12.720Z,78.30
2023-04-15T11:28:43.705Z,78.30
2023-04-15T11:31:13.506Z,78.30
2023-04-15T11:33:56.556Z,79.10
2023-04-15T11:36:27.238Z,79.60
2023-04-15T11:38:55.526Z,79.50
2023-04-15T11:41:24.278Z,79.80
2023-04-15T11:43:54.104Z,79.70
2023-04-15T11:46:22.925Z,79.70
2023-04-15T11:48:51.142Z,79.70
2023-04-15T11:51:21.776Z,79.70
2023-04-15T11:53:52.048Z,79.90
2023-04-15T11:56:22.014Z,80.00
2023-04-15T11:58:52.754Z,80.10
2023-04-15T12:01:22.452Z,80.20
2023-04-15T12:03:50.778Z,80.30
2023-04-15T12:06:21.027Z,79.90
2023-04-15T12:09:05.015Z,80.10
2023-04-15T12:11:44.421Z,80.20
2023-04-15T12:14:16.979Z,80.50
2023-04-15T12:16:51.794Z,80.40
2023-04-15T12:19:25.975Z,80.30
2023-04-15T12:22:00.523Z,80.30
2023-04-15T12:24:29.258Z,80.10
2023-04-15T12:26:58.422Z,80.00
2023-04-15T12:29:28.864Z,80.00
2023-04-15T12:31:59.082Z,80.10
2023-04-15T12:34:29.404Z,80.10
2023-04-15T12:36:59.312Z,79.90
2023-04-15T12:39:30.518Z,80.70
2023-04-15T12:41:59.322Z,80.50
2023-04-15T12:44:27.877Z,80.70
2023-04-15T12:46:56.504Z,80.90
2023-04-15T12:49:26.644Z,80.60
2023-04-15T12:51:56.256Z,80.20
2023-04-15T12:54:24.738Z,80.50
2023-04-15T12:56:52.988Z,80.50
2023-04-15T12:59:21.620Z,80.30
2023-04-15T13:01:50.266Z,80.20
2023-04-15T13:04:18.563Z,80.30
2023-04-15T13:06:48.049Z,80.40
2023-04-15T13:09:16.265Z,80.80
2023-04-15T13:11:44.586Z,80.90
2023-04-15T13:14:13.038Z,80.60
2023-04-15T13:16:41.448Z,81.40
2023-04-15T13:19:09.714Z,81.50
2023-04-15T13:21:37.652Z,81.60
2023-04-15T13:24:08.193Z,81.00
2023-04-15T13:26:36.443Z,81.60
2023-04-15T13:29:05.951Z,82.20
2023-04-15T13:31:34.111Z,81.70
2023-04-15T13:34:02.153Z,81.80
2023-04-15T13:36:30.179Z,81.60
2023-04-15T13:38:58.455Z,85.20
2023-04-15T13:41:27.875Z,86.20
2023-04-15T13:43:55.894Z,87.30
2023-04-15T13:46:23.933Z,87.00
2023-04-15T13:48:51.890Z,86.30
2023-04-15T13:51:19.954Z,87.10
2023-04-15T13:53:48.030Z,87.10
2023-04-15T13:56:16.075Z,86.80
2023-04-15T13:58:45.576Z,88.40
2023-04-15T14:01:13.660Z,88.90
2023-04-15T14:03:41.851Z,89.60
2023-04-15T14:06:10.131Z,89.80
2023-04-15T14:08:38.215Z,89.60
2023-04-15T14:11:06.190Z,90.40
2023-04-15T14:13:34.151Z,89.10
2023-04-15T14:16:03.590Z,89.60
2023-04-15T14:18:31.606Z,90.10
2023-04-15T14:20:59.919Z,89.60
2023-04-15T14:23:27.966Z,90.30
2023-04-15T14:25:56.339Z,90.20
2023-04-15T14:28:24.317Z,90.60
2023-04-15T14:30:52.393Z,90.90
2023-04-15T14:33:21.739Z,92.40
2023-04-15T14:35:50.855Z,92.60
2023-04-15T14:38:18.973Z,92.40
2023-04-15T14:40:47.624Z,92.90
2023-04-15T14:43:15.698Z,94.10
2023-04-15T14:45:45.310Z,95.70
2023-04-15T14:48:13.876Z,97.00
2023-04-15T14:50:43.343Z,97.50
2023-04-15T14:53:11.451Z,97.80
2023-04-15T14:55:39.502Z,97.80
2023-04-15T14:58:08.263Z,96.70
2023-04-15T15:00:39.215Z,96.70
2023-04-15T15:03:12.660Z,97.10
2023-04-15T15:05:41.244Z,95.40
2023-04-15T15:08:11.318Z,96.30
2023-04-15T15:10:49.034Z,95.60
2023-04-15T15:13:19.032Z,96.10
2023-04-15T15:15:49.258Z,96.30
2023-04-15T15:18:18.947Z,96.70
2023-04-15T15:20:47.391Z,96.10
2023-04-15T15:23:16.861Z,94.40
2023-04-15T15:25:45.082Z,95.80
2023-04-15T15:28:13.113Z,95.50
2023-04-15T15:30:41.106Z,93.70
2023-04-15T15:33:09.098Z,94.00
2023-04-15T15:35:37.245Z,93.50
2023-04-15T15:38:06.336Z,93.80
2023-04-15T15:40:35.687Z,94.30
2023-04-15T15:43:04.460Z,93.80
2023-04-15T15:45:32.557Z,93.70
2023-04-15T15:48:00.733Z,93.60
2023-04-15T15:50:28.764Z,92.90
2023-04-15T15:52:58.562Z,93.60
2023-04-15T15:55:27.225Z,93.00
2023-04-15T15:57:56.641Z,92.10
2023-04-15T16:00:24.765Z,92.50
2023-04-15T16:03:06.959Z,93.00
2023-04-15T16:05:36.092Z,93.80
2023-04-15T16:08:04.540Z,93.20
2023-04-15T16:10:32.502Z,93.90
2023-04-15T16:13:02.010Z,93.30
2023-04-15T16:15:30.321Z,94.00
2023-04-15T16:17:58.395Z,94.10
2023-04-15T16:20:26.545Z,93.80
2023-04-15T16:22:54.762Z,94.00
2023-04-15T16:25:22.707Z,94.30
2023-04-15T16:28:03.176Z,94.20
2023-04-15T16:30:38.759Z,95.00
2023-04-15T16:33:07.461Z,94.10
2023-04-15T16:35:35.766Z,94.10
2023-04-15T16:38:04.034Z,94.00
2023-04-15T16:40:32.842Z,94.50
2023-04-15T16:43:00.852Z,95.30
2023-04-15T16:45:29.002Z,95.50
2023-04-15T16:47:58.481Z,95.40
2023-04-15T16:50:26.550Z,96.30
2023-04-15T16:52:54.767Z,94.80
2023-04-15T16:55:22.892Z,96.20
2023-04-15T16:58:01.440Z,95.90
2023-04-15T17:00:31.669Z,95.70
2023-04-15T17:03:01.718Z,96.40
2023-04-15T17:05:30.584Z,95.70
2023-04-15T17:07:58.752Z,96.80
2023-04-15T17:10:26.814Z,95.60
2023-04-15T17:12:57.327Z,96.30
2023-04-15T17:15:25.967Z,96.30
2023-04-15T17:17:54.111Z,95.30
2023-04-15T17:20:23.735Z,96.00
2023-04-15T17:22:51.826Z,96.20
2023-04-15T17:25:19.843Z,96.30
2023-04-15T17:27:47.809Z,96.30
2023-04-15T17:30:16.108Z,95.90
2023-04-15T17:32:44.214Z,96.20
2023-04-15T17:35:12.348Z,96.10
2023-04-15T17:37:42.040Z,95.90
2023-04-15T17:40:14.745Z,96.10
2023-04-15T17:42:42.787Z,95.20
2023-04-15T17:45:11.634Z,96.20
2023-04-15T17:47:39.650Z,96.00
2023-04-15T17:50:09.085Z,96.30
2023-04-15T17:52:37.181Z,96.10
2023-04-15T17:55:07.539Z,95.70
2023-04-15T17:57:36.178Z,95.80
2023-04-15T18:00:04.443Z,96.80
2023-04-15T18:02:41.085Z,96.40
2023-04-15T18:05:10.426Z,96.40
2023-04-15T18:07:38.613Z,96.70
2023-04-15T18:10:09.656Z,96.40
2023-04-15T18:12:37.776Z,97.20
2023-04-15T18:15:06.702Z,97.20
2023-04-15T18:17:34.790Z,97.30
2023-04-15T18:20:02.915Z,97.00
2023-04-15T18:22:31.067Z,96.70
2023-04-15T18:25:04.352Z,96.50
2023-04-15T18:27:34.943Z,97.30
2023-04-15T18:30:03.085Z,96.70
2023-04-15T18:32:32.757Z,96.70
2023-04-15T18:35:01.019Z,97.40
2023-04-15T18:37:29.937Z,97.30
2023-04-15T18:39:58.304Z,96.30
2023-04-15T18:42:26.641Z,97.10
2023-04-15T18:44:56.127Z,97.70
2023-04-15T18:47:26.500Z,97.20
2023-04-15T18:49:55.137Z,97.30
2023-04-15T18:52:23.118Z,97.10
2023-04-15T18:54:51.195Z,96.50
2023-04-15T18:57:23.038Z,96.50
2023-04-15T19:00:02.113Z,96.60
2023-04-15T19:02:30.258Z,97.40
2023-04-15T19:04:58.285Z,97.10
2023-04-15T19:07:26.648Z,96.70
2023-04-15T19:09:54.765Z,97.10
2023-04-15T19:12:22.724Z,97.80
2023-04-15T19:14:50.792Z,97.50
2023-04-15T19:17:20.170Z,98.30
2023-04-15T19:19:48.222Z,97.40
2023-04-15T19:22:17.545Z,98.30
2023-04-15T19:24:46.943Z,98.50
2023-04-15T19:27:15.059Z,98.10
2023-04-15T19:29:43.083Z,97.60
2023-04-15T19:32:11.305Z,97.10
2023-04-15T19:34:40.732Z,97.30
2023-04-15T19:37:08.741Z,98.00
2023-04-15T19:39:36.713Z,97.40
2023-04-15T19:42:04.773Z,97.70
2023-04-15T19:44:32.873Z,97.80
2023-04-15T19:47:00.927Z,98.20
2023-04-15T19:49:28.972Z,97.80
2023-04-15T19:51:58.339Z,97.30
2023-04-15T19:54:26.447Z,98.60
2023-04-15T19:56:54.385Z,97.50
2023-04-15T19:59:22.336Z,98.90
2023-04-15T20:01:50.442Z,99.00
2023-04-15T20:04:18.598Z,99.30
2023-04-15T20:06:46.544Z,98.50
2023-04-15T20:09:15.984Z,98.50
2023-04-15T20:12:48.059Z,99.60
2023-04-15T20:14:32.096Z,98.90
2023-04-15T20:17:00.018Z,98.90
2023-04-15T20:19:27.986Z,99.60
2023-04-15T20:21:56.037Z,98.90
2023-04-15T20:24:25.366Z,99.20
2023-04-15T20:26:53.339Z,98.70
2023-04-15T20:29:21.301Z,99.10
2023-04-15T20:31:49.393Z,99.60
2023-04-15T20:34:17.413Z,99.60
2023-04-15T20:36:45.613Z,99.10
2023-04-15T20:39:13.607Z,99.40
2023-04-15T20:41:42.930Z,99.30
2023-04-15T20:44:10.962Z,99.60
2023-04-15T20:46:39.023Z,99.50
2023-04-15T20:49:07.278Z,99.50
2023-04-15T20:51:37.723Z,99.10
2023-04-15T20:54:06.166Z,99.40
2023-04-15T20:56:34.248Z,99.40
2023-04-15T20:59:03.877Z,99.20
2023-04-15T21:01:32.079Z,99.60
2023-04-15T21:04:00.155Z,99.60
2023-04-15T21:06:28.253Z,99.60
2023-04-15T21:08:56.189Z,99.60
2023-04-15T21:11:43.073Z,99.60
2023-04-15T21:14:13.617Z,99.60
2023-04-15T21:16:41.766Z,99.30
2023-04-15T21:19:10.547Z,99.00
2023-04-15T21:21:38.634Z,99.10
2023-04-15T21:24:07.818Z,98.90
2023-04-15T21:26:36.845Z,99.50
2023-04-15T21:29:05.091Z,98.80
2023-04-15T21:31:35.284Z,99.60
2023-04-15T21:34:03.273Z,99.60
2023-04-15T21:36:31.654Z,99.60
2023-04-15T21:38:59.709Z,99.60
2023-04-15T21:41:27.863Z,99.40
2023-04-15T21:43:55.869Z,99.40
2023-04-15T21:46:25.734Z,99.60
2023-04-15T21:49:02.622Z,99.60
2023-04-15T21:51:31.602Z,99.60
2023-04-15T21:54:00.016Z,99.40
2023-04-15T21:56:28.039Z,99.50
2023-04-15T21:58:57.802Z,99.60
2023-04-15T22:01:27.637Z,99.10
2023-04-15T22:03:55.946Z,99.30
2023-04-15T22:06:25.354Z,99.30
2023-04-15T22:08:57.470Z,99.30
2023-04-15T22:11:27.907Z,99.20
2023-04-15T22:13:57.112Z,98.50
2023-04-15T22:16:26.362Z,98.90
2023-04-15T22:18:55.859Z,98.70
2023-04-15T22:21:25.408Z,99.60
2023-04-15T22:24:32.237Z,99.40
2023-04-15T22:26:41.835Z,99.40
2023-04-15T22:29:10.115Z,99.60
2023-04-15T22:31:38.088Z,99.30
2023-04-15T22:34:06.156Z,99.60
2023-04-15T22:36:35.599Z,99.60
2023-04-15T22:39:03.854Z,99.50
2023-04-15T22:41:32.023Z,99.50
2023-04-15T22:43:59.981Z,99.60
2023-04-15T22:46:28.007Z,99.50
2023-04-15T22:48:56.144Z,99.30
2023-04-15T22:51:26.843Z,98.60
2023-04-15T22:53:56.617Z,98.70
2023-04-15T22:56:24.925Z,98.50
2023-04-15T22:58:53.059Z,99.00
2023-04-15T23:01:21.316Z,99.20
2023-04-15T23:03:56.621Z,99.10
2023-04-15T23:06:33.635Z,99.20
2023-04-15T23:09:03.161Z,99.60
2023-04-15T23:11:31.141Z,99.60
2023-04-15T23:13:59.203Z,99.60
2023-04-15T23:16:27.805Z,99.50
2023-04-15T23:18:56.000Z,99.10
2023-04-15T23:21:26.030Z,99.60
2023-04-15T23:23:54.242Z,99.60
2023-04-15T23:26:24.485Z,99.60
2023-04-15T23:28:52.476Z,99.60
2023-04-15T23:31:20.537Z,99.60
2023-04-15T23:33:48.546Z,99.60
2023-04-15T23:36:16.538Z,98.80
2023-04-15T23:38:44.556Z,99.20
2023-04-15T23:41:12.594Z,99.30
2023-04-15T23:43:41.928Z,99.20
2023-04-15T23:46:09.897Z,99.20
2023-04-15T23:48:37.889Z,99.30
2023-04-15T23:51:06.638Z,98.70
2023-04-15T23:53:35.187Z,99.10
2023-04-15T23:56:03.254Z,99.30
2023-04-15T23:58:32.885Z,99.60
